Time;durP1;ratioP1;P1;durP2;ratioP2;P2;SDS_P1;SDS_P2;PMS_P1;PMS_P2;Temp;Humidity;BMP_temperature;BMP_pressure;BME280_temperature;BME280_humidity;BME280_pressure;Samples;Min_cycle;Max_cycle;Signal;HPM_P1;HPM_P2
2022/04/07 00:01:22;;;;;;;9.98;3.47;;;11.60;99.90;;;;;;5034624;28;20057;-74
2022/04/07 00:03:47;;;;;;;8.52;3.15;;;11.60;99.90;;;;;;5034366;28;20065;-75
2022/04/07 00:06:13;;;;;;;17.30;3.83;;;11.50;99.90;;;;;;5034271;28;20026;-73
2022/04/07 00:08:39;;;;;;;11.55;2.85;;;11.50;99.90;;;;;;5034459;28;20026;-72
2022/04/07 00:11:06;;;;;;;14.85;3.47;;;11.40;99.90;;;;;;5034119;28;20029;-72
2022/04/07 00:13:32;;;;;;;8.80;2.65;;;11.30;99.90;;;;;;5034094;28;20498;-73
2022/04/07 00:16:00;;;;;;;10.10;3.13;;;11.20;99.90;;;;;;5034024;28;20021;-72
2022/04/07 00:18:29;;;;;;;15.77;3.42;;;11.10;99.90;;;;;;5033973;28;20036;-74
2022/04/07 00:20:56;;;;;;;11.95;2.92;;;11.10;99.90;;;;;;5033966;28;20017;-73
2022/04/07 00:23:22;;;;;;;10.55;2.90;;;11.10;99.90;;;;;;5033767;28;20125;-71
2022/04/07 00:25:49;;;;;;;5.97;2.08;;;11.10;99.90;;;;;;5034159;28;20033;-75
2022/04/07 00:28:15;;;;;;;9.00;3.20;;;11.10;99.90;;;;;;5033766;28;20029;-74
2022/04/07 00:30:43;;;;;;;7.80;2.88;;;11.10;99.90;;;;;;5033799;28;20053;-73
2022/04/07 00:33:09;;;;;;;7.80;2.10;;;11.10;99.90;;;;;;5033808;28;20072;-74
2022/04/07 00:35:35;;;;;;;5.80;2.72;;;11.10;99.90;;;;;;5033687;28;20029;-73
2022/04/07 00:38:01;;;;;;;11.98;3.53;;;11.10;99.90;;;;;;5033666;28;20395;-72
2022/04/07 00:40:27;;;;;;;8.77;2.60;;;11.10;99.90;;;;;;5033579;28;20502;-71
2022/04/07 00:42:53;;;;;;;8.82;4.95;;;11.10;99.90;;;;;;5033605;28;20112;-72
2022/04/07 00:45:21;;;;;;;11.45;3.72;;;11.10;99.90;;;;;;5033512;28;20025;-73
2022/04/07 00:47:49;;;;;;;7.07;1.80;;;11.10;99.90;;;;;;5033424;28;20033;-73
2022/04/07 00:50:16;;;;;;;4.88;2.20;;;11.10;99.90;;;;;;5033495;28;20017;-75
2022/04/07 00:52:45;;;;;;;4.10;1.15;;;11.10;99.90;;;;;;5033439;28;20018;-74
2022/04/07 00:55:13;;;;;;;6.85;2.60;;;11.10;99.90;;;;;;5033006;28;20022;-74
2022/04/07 00:57:40;;;;;;;6.63;1.70;;;11.10;99.90;;;;;;5033420;28;20029;-74
2022/04/07 01:00:10;;;;;;;4.45;1.98;;;11.10;99.90;;;;;;5015617;28;20025;-74
2022/04/07 01:02:37;;;;;;;3.28;0.82;;;11.10;99.90;;;;;;5033548;28;20026;-71
2022/04/07 01:05:07;;;;;;;3.33;1.00;;;11.10;99.90;;;;;;5015515;28;20434;-73
2022/04/07 01:07:37;;;;;;;1.23;0.75;;;11.10;99.90;;;;;;5033229;28;20502;-74
2022/04/07 01:10:08;;;;;;;2.10;1.05;;;11.10;99.90;;;;;;5033324;28;20029;-72
2022/04/07 01:12:35;;;;;;;1.00;0.60;;;11.10;99.90;;;;;;5033469;28;20472;-72
2022/04/07 01:15:04;;;;;;;1.50;0.63;;;11.10;99.90;;;;;;5033119;28;20025;-72
2022/04/07 01:17:30;;;;;;;2.10;0.70;;;11.10;99.90;;;;;;5033142;28;20017;-74
2022/04/07 01:19:56;;;;;;;4.13;0.75;;;11.10;99.90;;;;;;5033124;28;20021;-73
2022/04/07 01:22:22;;;;;;;1.77;0.93;;;11.20;99.90;;;;;;5033138;28;20494;-75
2022/04/07 01:24:49;;;;;;;1.15;0.77;;;11.20;99.90;;;;;;5032689;28;20064;-73
2022/04/07 01:27:16;;;;;;;5.50;0.98;;;11.20;99.90;;;;;;5033054;28;20026;-73
2022/04/07 01:29:43;;;;;;;1.08;0.80;;;11.20;99.90;;;;;;5033591;28;20032;-75
2022/04/07 01:32:12;;;;;;;0.90;0.50;;;11.20;99.90;;;;;;5033271;28;20523;-72
2022/04/07 01:34:39;;;;;;;1.00;0.60;;;11.20;99.90;;;;;;5015273;28;20029;-75
2022/04/07 01:37:06;;;;;;;1.55;0.80;;;11.20;99.90;;;;;;5033035;28;20100;-74
2022/04/07 01:39:32;;;;;;;3.50;0.80;;;11.20;99.90;;;;;;5032958;28;20026;-74
2022/04/07 01:41:58;;;;;;;2.30;0.60;;;11.20;99.90;;;;;;5032902;28;20017;-73
2022/04/07 01:44:25;;;;;;;1.88;0.95;;;11.20;99.90;;;;;;5032987;28;20376;-74
2022/04/07 01:46:51;;;;;;;1.55;0.40;;;11.10;99.90;;;;;;5015170;28;20097;-75
2022/04/07 01:49:19;;;;;;;0.95;0.70;;;11.10;99.90;;;;;;5032787;28;20387;-74
2022/04/07 01:51:46;;;;;;;3.67;0.82;;;11.10;99.90;;;;;;5032838;28;20100;-73
2022/04/07 01:54:13;;;;;;;4.78;1.20;;;11.10;99.90;;;;;;5033339;28;20080;-74
2022/04/07 01:56:46;;;;;;;8.55;2.10;;;11.10;99.90;;;;;;5033051;28;20014;-71
2022/04/07 01:59:13;;;;;;;5.53;1.55;;;11.10;99.90;;;;;;5033093;28;20029;-72
2022/04/07 02:01:39;;;;;;;7.68;2.55;;;11.20;99.90;;;;;;5032748;28;20026;-72
2022/04/07 02:04:04;;;;;;;5.55;1.40;;;11.20;99.90;;;;;;5032781;28;20021;-73
2022/04/07 02:06:30;;;;;;;7.65;1.98;;;11.30;99.90;;;;;;5033676;28;20091;-73
2022/04/07 02:08:56;;;;;;;8.68;2.67;;;11.20;99.90;;;;;;5036351;28;20376;-75
2022/04/07 02:11:22;;;;;;;7.75;2.30;;;11.20;99.90;;;;;;5036401;28;20541;-72
2022/04/07 02:13:48;;;;;;;13.00;2.58;;;11.20;99.90;;;;;;5036616;28;20026;-72
2022/04/07 02:16:14;;;;;;;10.65;2.33;;;11.20;99.90;;;;;;5036234;28;20018;-73
2022/04/07 02:18:40;;;;;;;8.82;2.28;;;11.10;99.90;;;;;;5036240;28;20398;-74
2022/04/07 02:21:06;;;;;;;11.52;3.05;;;11.10;99.90;;;;;;5036223;28;20539;-75
2022/04/07 02:23:40;;;;;;;12.52;2.47;;;11.10;99.90;;;;;;5036138;28;20581;-74
2022/04/07 02:26:10;;;;;;;14.00;3.10;;;11.10;99.90;;;;;;5036177;28;20029;-73
2022/04/07 02:28:35;;;;;;;12.70;2.88;;;11.00;99.90;;;;;;5036622;28;20484;-72
2022/04/07 02:31:01;;;;;;;12.93;3.22;;;11.00;99.90;;;;;;5036027;28;20028;-72
2022/04/07 02:33:27;;;;;;;17.10;4.30;;;11.00;99.90;;;;;;5036547;28;20079;-72
2022/04/07 02:35:53;;;;;;;11.15;3.42;;;11.10;99.90;;;;;;5036244;28;20018;-71
2022/04/07 02:38:18;;;;;;;9.20;2.80;;;11.10;99.90;;;;;;5035887;28;20434;-75
2022/04/07 02:40:44;;;;;;;19.70;3.67;;;11.00;99.90;;;;;;5035867;28;20022;-74
2022/04/07 02:43:09;;;;;;;12.60;3.60;;;11.00;99.90;;;;;;5035839;28;20029;-73
2022/04/07 02:45:35;;;;;;;11.00;3.20;;;11.00;99.90;;;;;;5035794;28;20029;-75
2022/04/07 02:48:01;;;;;;;17.15;3.70;;;11.10;99.90;;;;;;5035676;28;20112;-74
2022/04/07 02:50:27;;;;;;;15.07;4.13;;;11.10;99.90;;;;;;5036234;28;20058;-74
2022/04/07 02:52:52;;;;;;;17.05;3.83;;;11.10;99.90;;;;;;5035667;28;20025;-77
2022/04/07 02:55:18;;;;;;;12.20;2.95;;;11.20;99.90;;;;;;5035585;28;20024;-73
2022/04/07 02:57:44;;;;;;;14.20;3.10;;;11.30;99.90;;;;;;5017748;28;20032;-73
2022/04/07 03:00:10;;;;;;;14.63;3.40;;;;;;;;;;5035538;28;20079;-72
2022/04/07 03:02:37;;;;;;;14.13;3.47;;;11.30;99.90;;;;;;5017744;28;20131;-73
2022/04/07 03:05:04;;;;;;;8.75;2.50;;;11.30;99.90;;;;;;5035491;28;20026;-74
2022/04/07 03:07:29;;;;;;;12.25;3.08;;;11.30;99.90;;;;;;5035342;28;20458;-74
2022/04/07 03:09:55;;;;;;;13.70;2.60;;;11.30;99.90;;;;;;5035382;28;20053;-74
2022/04/07 03:12:20;;;;;;;10.85;2.65;;;11.30;99.90;;;;;;5017574;28;20029;-72
2022/04/07 03:14:46;;;;;;;7.80;2.08;;;11.30;99.90;;;;;;5034888;28;20394;-71
2022/04/07 03:17:12;;;;;;;11.90;2.80;;;11.30;99.90;;;;;;5035056;28;20479;-71
2022/04/07 03:19:37;;;;;;;7.95;2.42;;;11.30;99.90;;;;;;5017295;28;20037;-72
2022/04/07 03:22:03;;;;;;;10.73;2.42;;;11.30;99.90;;;;;;5035156;28;20109;-71
2022/04/07 03:24:29;;;;;;;5.93;2.67;;;11.30;99.90;;;;;;5034740;28;20045;-72
2022/04/07 03:26:55;;;;;;;5.85;2.08;;;11.30;99.90;;;;;;5035033;28;20038;-72
2022/04/07 03:29:21;;;;;;;12.25;2.70;;;11.30;99.90;;;;;;5034890;28;20029;-74
2022/04/07 03:31:48;;;;;;;6.55;2.78;;;11.60;99.90;;;;;;5035492;28;20375;-72
2022/04/07 03:34:14;;;;;;;9.77;2.70;;;11.40;99.90;;;;;;5034868;28;20018;-74
2022/04/07 03:36:39;;;;;;;13.65;3.28;;;11.40;99.90;;;;;;5034855;28;20036;-74
2022/04/07 03:39:05;;;;;;;11.63;2.22;;;11.40;99.90;;;;;;5017029;28;20123;-75
2022/04/07 03:41:31;;;;;;;7.22;2.20;;;11.40;99.90;;;;;;5017009;28;20079;-75
2022/04/07 03:43:56;;;;;;;7.13;2.33;;;11.40;99.90;;;;;;5034688;28;20021;-71
2022/04/07 03:46:22;;;;;;;6.53;2.20;;;11.50;99.90;;;;;;5034963;28;20030;-77
2022/04/07 03:48:49;;;;;;;5.38;2.35;;;11.50;99.90;;;;;;5034550;28;20031;-75
2022/04/07 03:51:18;;;;;;;8.02;2.78;;;11.50;99.90;;;;;;5016839;28;20061;-74
2022/04/07 03:53:44;;;;;;;7.80;2.92;;;11.50;99.90;;;;;;5035047;28;20024;-74
2022/04/07 03:56:10;;;;;;;15.82;7.05;;;11.80;99.90;;;;;;5034743;28;20025;-73
2022/04/07 03:58:36;;;;;;;7.63;2.50;;;11.80;99.90;;;;;;5034399;28;20030;-73
2022/04/07 04:01:02;;;;;;;8.60;2.03;;;11.90;99.90;;;;;;5034324;28;20400;-73
2022/04/07 04:03:28;;;;;;;5.32;2.83;;;11.90;99.90;;;;;;5034315;28;20025;-72
2022/04/07 04:05:54;;;;;;;7.85;2.17;;;11.80;99.90;;;;;;5034559;28;20037;-73
2022/04/07 04:08:19;;;;;;;6.68;1.73;;;11.80;99.90;;;;;;5034157;28;20034;-72
2022/04/07 04:10:46;;;;;;;6.28;1.63;;;11.90;99.90;;;;;;5034155;28;20021;-72
2022/04/07 04:13:11;;;;;;;4.95;2.03;;;11.90;99.90;;;;;;5034129;28;20022;-71
2022/04/07 04:15:37;;;;;;;5.78;2.42;;;11.90;99.90;;;;;;5033767;28;20036;-71
2022/04/07 04:18:03;;;;;;;6.05;1.90;;;12.00;99.90;;;;;;5034011;28;20040;-70
2022/04/07 04:20:28;;;;;;;7.25;1.83;;;12.00;99.90;;;;;;5034038;28;20033;-71
2022/04/07 04:22:54;;;;;;;6.65;1.55;;;12.00;99.90;;;;;;5033841;28;20411;-70
2022/04/07 04:25:19;;;;;;;4.07;2.00;;;12.00;99.90;;;;;;5033917;28;20037;-66
2022/04/07 04:27:45;;;;;;;5.80;2.67;;;12.20;99.90;;;;;;5033831;28;20033;-67
2022/04/07 04:30:13;;;;;;;3.22;1.00;;;12.00;99.90;;;;;;5033761;28;20018;-71
2022/04/07 04:32:39;;;;;;;6.15;1.98;;;12.00;99.90;;;;;;5034059;28;20032;-70
2022/04/07 04:35:06;;;;;;;5.65;2.00;;;12.10;99.90;;;;;;5034003;28;20018;-65
2022/04/07 04:37:31;;;;;;;2.63;1.30;;;12.20;99.90;;;;;;5034240;28;20021;-70
2022/04/07 04:39:57;;;;;;;2.42;1.05;;;12.00;99.90;;;;;;5033983;28;20028;-71
2022/04/07 04:42:23;;;;;;;2.30;1.30;;;12.00;99.90;;;;;;5033929;28;20030;-70
2022/04/07 04:44:49;;;;;;;3.95;1.20;;;12.00;99.90;;;;;;5033579;28;20498;-72
2022/04/07 04:47:17;;;;;;;2.08;0.80;;;12.00;99.90;;;;;;5033603;28;20053;-71
2022/04/07 04:49:43;;;;;;;4.90;2.03;;;12.00;99.90;;;;;;5033485;28;20052;-72
2022/04/07 04:52:11;;;;;;;2.13;1.20;;;12.00;99.90;;;;;;5033790;28;20057;-71
2022/04/07 04:54:37;;;;;;;6.18;2.00;;;12.00;99.90;;;;;;5033473;28;20048;-70
2022/04/07 04:57:03;;;;;;;2.55;1.00;;;12.00;99.90;;;;;;5033467;28;20368;-69
2022/04/07 04:59:30;;;;;;;3.72;2.03;;;12.10;99.90;;;;;;5033428;28;20021;-70
2022/04/07 05:01:55;;;;;;;5.60;1.10;;;12.10;99.90;;;;;;5033380;28;20037;-71
2022/04/07 05:04:21;;;;;;;3.42;1.60;;;12.20;99.90;;;;;;5033580;28;20152;-70
2022/04/07 05:06:47;;;;;;;25.83;13.45;;;12.30;99.90;;;;;;5033276;28;20030;-69
2022/04/07 05:09:12;;;;;;;4.35;1.77;;;12.30;99.90;;;;;;5033146;28;20029;-70
2022/04/07 05:11:38;;;;;;;11.57;6.32;;;12.20;99.90;;;;;;5033712;28;20029;-72
2022/04/07 05:14:04;;;;;;;5.20;2.72;;;12.30;99.90;;;;;;5033407;28;20033;-66
2022/04/07 05:16:29;;;;;;;7.43;3.75;;;12.30;99.90;;;;;;5033150;28;20041;-66
2022/04/07 05:18:55;;;;;;;5.43;2.45;;;12.40;99.90;;;;;;5033189;28;20403;-72
2022/04/07 05:21:21;;;;;;;3.28;1.13;;;12.40;99.90;;;;;;5033119;28;20025;-71
2022/04/07 05:23:46;;;;;;;1.40;1.30;;;12.50;99.90;;;;;;5032921;28;20087;-71
2022/04/07 05:26:12;;;;;;;2.97;0.75;;;12.50;99.90;;;;;;5033312;28;20033;-73
2022/04/07 05:28:39;;;;;;;1.50;1.10;;;12.50;99.90;;;;;;5032998;28;20029;-72
2022/04/07 05:31:05;;;;;;;3.53;0.93;;;12.50;99.90;;;;;;5033304;28;20021;-74
2022/04/07 05:33:31;;;;;;;1.70;0.80;;;12.60;99.90;;;;;;5033262;28;20104;-71
2022/04/07 05:35:56;;;;;;;2.30;0.70;;;12.60;99.90;;;;;;5033574;28;20145;-72
2022/04/07 05:38:22;;;;;;;2.15;0.60;;;12.60;99.90;;;;;;5033017;28;20021;-71
2022/04/07 05:40:48;;;;;;;2.25;0.82;;;12.70;99.90;;;;;;5034109;28;20026;-71
2022/04/07 05:43:13;;;;;;;3.38;0.63;;;12.70;99.90;;;;;;5037261;28;20037;-72
2022/04/07 05:45:40;;;;;;;1.23;0.68;;;12.70;99.90;;;;;;5037120;28;20385;-72
2022/04/07 05:48:06;;;;;;;3.55;0.70;;;12.60;99.90;;;;;;5036813;28;20468;-72
2022/04/07 05:50:32;;;;;;;1.55;0.95;;;12.60;99.90;;;;;;5036827;28;20022;-72
2022/04/07 05:52:57;;;;;;;1.35;0.60;;;12.50;99.90;;;;;;5036809;28;20480;-73
2022/04/07 05:55:23;;;;;;;1.60;0.60;;;12.50;99.90;;;;;;5018998;28;20030;-68
2022/04/07 05:57:49;;;;;;;2.83;0.77;;;12.50;99.90;;;;;;5036922;28;20100;-72
2022/04/07 06:00:17;;;;;;;3.28;1.05;;;12.50;99.90;;;;;;5036655;28;20452;-67
2022/04/07 06:02:44;;;;;;;2.42;0.80;;;12.50;99.90;;;;;;5036550;28;20032;-71
2022/04/07 06:05:11;;;;;;;1.73;0.90;;;12.50;99.90;;;;;;5036536;28;20022;-67
2022/04/07 06:07:37;;;;;;;3.63;1.20;;;12.50;99.90;;;;;;5036442;28;20056;-71
2022/04/07 06:10:04;;;;;;;3.65;1.08;;;12.50;99.90;;;;;;5036989;28;20014;-73
2022/04/07 06:12:30;;;;;;;1.73;1.02;;;12.50;99.90;;;;;;5036977;28;20024;-72
2022/04/07 06:14:56;;;;;;;3.95;0.80;;;12.50;99.90;;;;;;5036572;28;20025;-71
2022/04/07 06:17:35;;;;;;;4.15;1.33;;;12.60;99.90;;;;;;5036345;28;20029;-67
2022/04/07 06:20:01;;;;;;;2.80;0.93;;;12.70;99.90;;;;;;5036884;28;20059;-67
2022/04/07 06:22:27;;;;;;;2.40;0.93;;;12.80;99.90;;;;;;5036278;28;20033;-66
2022/04/07 06:24:52;;;;;;;4.85;1.00;;;12.90;99.90;;;;;;5036198;28;20041;-67
2022/04/07 06:27:18;;;;;;;3.45;1.25;;;13.00;99.90;;;;;;5036418;28;20423;-67
2022/04/07 06:29:44;;;;;;;3.88;1.13;;;13.00;99.90;;;;;;5036055;28;20107;-67
2022/04/07 06:32:09;;;;;;;5.30;1.15;;;13.10;99.90;;;;;;5036332;28;20526;-68
2022/04/07 06:34:35;;;;;;;3.25;1.20;;;13.20;99.90;;;;;;5036049;28;20104;-71
2022/04/07 06:37:01;;;;;;;6.18;1.60;;;13.30;99.90;;;;;;5036007;28;20076;-66
2022/04/07 06:39:26;;;;;;;3.97;1.77;;;13.40;99.90;;;;;;5035934;28;20061;-71
2022/04/07 06:41:52;;;;;;;4.35;1.48;;;13.50;99.90;;;;;;5035932;28;20025;-71
2022/04/07 06:44:19;;;;;;;5.13;2.03;;;13.50;99.90;;;;;;5018055;28;20083;-71
2022/04/07 06:46:45;;;;;;;7.18;1.88;;;13.50;99.90;;;;;;5036054;28;20026;-69
2022/04/07 06:49:11;;;;;;;6.35;1.63;;;13.60;99.90;;;;;;5035729;28;20592;-70
2022/04/07 06:51:36;;;;;;;12.60;1.75;;;13.80;99.90;;;;;;5035716;28;20021;-70
2022/04/07 06:54:02;;;;;;;5.18;1.60;;;13.90;99.90;;;;;;5035251;28;20032;-74
2022/04/07 06:56:28;;;;;;;7.05;1.60;;;14.00;99.90;;;;;;5054444;28;20032;-73
2022/04/07 06:58:54;;;;;;;7.18;1.50;;;14.00;99.90;;;;;;5055086;28;20029;-75
2022/04/07 07:01:20;;;;;;;4.60;1.50;;;13.90;99.90;;;;;;5055327;28;20021;-74
2022/04/07 07:03:46;;;;;;;7.93;1.95;;;13.80;99.90;;;;;;5055448;28;20032;-76
2022/04/07 07:06:12;;;;;;;6.20;2.15;;;13.70;99.90;;;;;;5054632;28;20033;-73
2022/04/07 07:08:38;;;;;;;7.47;2.35;;;13.70;99.90;;;;;;5055270;28;20502;-70
2022/04/07 07:11:04;;;;;;;13.10;2.40;;;13.70;99.90;;;;;;5055298;28;20052;-68
2022/04/07 07:13:29;;;;;;;9.50;2.50;;;13.70;99.90;;;;;;5055314;28;20490;-73
2022/04/07 07:15:55;;;;;;;8.20;2.25;;;13.70;99.90;;;;;;5054642;28;20165;-72
2022/04/07 07:18:21;;;;;;;8.40;2.47;;;13.70;99.90;;;;;;5055219;28;20032;-71
2022/04/07 07:20:47;;;;;;;9.13;2.90;;;13.90;99.90;;;;;;5055150;28;20075;-74
2022/04/07 07:23:13;;;;;;;13.32;2.90;;;14.00;99.90;;;;;;5054975;28;20052;-75
2022/04/07 07:25:39;;;;;;;10.23;3.00;;;14.10;99.90;;;;;;5036537;28;20098;-75
2022/04/07 07:28:05;;;;;;;10.75;3.08;;;14.20;99.90;;;;;;5054565;28;20032;-76
2022/04/07 07:30:31;;;;;;;7.78;2.47;;;14.10;99.90;;;;;;5055396;28;20475;-74
2022/04/07 07:32:58;;;;;;;12.02;2.97;;;14.10;99.90;;;;;;5054817;28;20078;-73
2022/04/07 07:35:24;;;;;;;10.43;2.75;;;14.10;99.90;;;;;;5054941;28;20024;-72
2022/04/07 07:37:51;;;;;;;10.18;3.00;;;14.10;99.90;;;;;;5036026;28;20033;-73
2022/04/07 07:40:19;;;;;;;13.98;3.63;;;14.20;99.90;;;;;;5054684;28;20053;-75
2022/04/07 07:42:45;;;;;;;10.27;2.45;;;14.20;99.90;;;;;;5054189;28;20025;-75
2022/04/07 07:45:10;;;;;;;14.77;3.05;;;14.30;99.90;;;;;;5054555;28;20021;-79
2022/04/07 07:47:36;;;;;;;12.63;2.90;;;14.50;99.90;;;;;;5054470;28;20021;-74
2022/04/07 07:50:03;;;;;;;13.40;2.45;;;14.80;99.90;;;;;;5036695;28;20489;-74
2022/04/07 07:52:28;;;;;;;10.57;2.88;;;15.30;99.90;;;;;;5054540;28;20036;-75
2022/04/07 07:54:54;;;;;;;12.45;2.65;;;15.70;99.90;;;;;;5054701;28;20021;-72
2022/04/07 07:57:20;;;;;;;10.48;2.60;;;15.30;99.90;;;;;;5054092;28;20473;-75
2022/04/07 07:59:45;;;;;;;9.07;2.15;;;15.00;99.90;;;;;;5054643;28;20031;-73
2022/04/07 08:02:11;;;;;;;12.07;2.95;;;14.90;99.90;;;;;;5053940;28;20025;-74
2022/04/07 08:04:37;;;;;;;10.57;2.67;;;15.00;99.90;;;;;;5053023;28;20029;-72
2022/04/07 08:07:03;;;;;;;14.95;2.97;;;14.90;99.90;;;;;;5054715;28;20445;-74
2022/04/07 08:09:28;;;;;;;13.00;3.30;;;14.80;99.90;;;;;;5054140;28;20017;-74
2022/04/07 08:11:54;;;;;;;11.00;2.95;;;14.80;99.90;;;;;;5054297;28;20078;-70
2022/04/07 08:14:20;;;;;;;9.70;2.85;;;14.70;99.90;;;;;;5054092;28;20021;-71
2022/04/07 08:16:46;;;;;;;13.55;2.67;;;14.80;99.90;;;;;;5053593;28;20503;-74
2022/04/07 08:19:11;;;;;;;13.60;3.05;;;14.90;99.90;;;;;;5054765;28;20036;-72
2022/04/07 08:21:37;;;;;;;9.30;2.75;;;15.20;99.90;;;;;;5053989;28;20061;-73
2022/04/07 08:24:04;;;;;;;9.30;2.50;;;15.30;99.90;;;;;;5053689;28;20045;-71
2022/04/07 08:26:30;;;;;;;10.63;2.40;;;15.50;99.90;;;;;;5053421;28;20025;-71
2022/04/07 08:28:55;;;;;;;10.63;2.55;;;15.70;99.90;;;;;;5053738;28;20043;-70
2022/04/07 08:31:21;;;;;;;7.75;2.50;;;15.90;99.90;;;;;;5053776;28;20382;-72
2022/04/07 08:33:46;;;;;;;9.98;2.15;;;15.80;99.90;;;;;;5035922;28;20028;-73
2022/04/07 08:36:12;;;;;;;9.50;2.33;;;15.70;99.90;;;;;;5035235;28;20029;-77
2022/04/07 08:38:38;;;;;;;10.77;2.38;;;15.80;99.90;;;;;;5053231;28;20033;-72
2022/04/07 08:41:08;;;;;;;9.75;2.55;;;16.40;99.90;;;;;;5053284;28;20027;-74
2022/04/07 08:43:38;;;;;;;10.40;2.53;;;17.00;99.90;;;;;;5053859;28;20390;-77
2022/04/07 08:46:07;;;;;;;8.85;2.83;;;16.80;99.90;;;;;;5035188;28;20425;-75
2022/04/07 08:48:37;;;;;;;6.90;2.45;;;16.30;99.90;;;;;;5053450;28;20021;-74
2022/04/07 08:51:04;;;;;;;8.43;2.28;;;15.70;99.90;;;;;;5053390;28;20028;-74
2022/04/07 08:53:31;;;;;;;10.63;2.55;;;15.20;99.90;;;;;;5053555;28;20021;-75
2022/04/07 08:55:59;;;;;;;8.93;2.53;;;14.90;99.90;;;;;;5053339;28;20025;-78
2022/04/07 08:58:25;;;;;;;4.85;2.00;;;14.90;99.90;;;;;;5053608;28;20092;-77
2022/04/07 09:00:51;;;;;;;9.65;3.63;;;15.50;99.90;;;;;;5052681;28;20061;-74
2022/04/07 09:03:16;;;;;;;4.82;1.73;;;16.20;99.90;;;;;;5053253;28;20033;-79
2022/04/07 09:05:54;;;;;;;4.47;1.40;;;16.50;99.90;;;;;;5034771;28;20063;-73
2022/04/07 09:08:20;;;;;;;5.38;1.38;;;16.70;99.90;;;;;;5051053;28;20075;-74
2022/04/07 09:10:56;;;;;;;5.97;1.35;;;17.20;99.90;;;;;;5052315;28;20481;-75
2022/04/07 09:13:21;;;;;;;4.22;1.30;;;17.90;99.90;;;;;;5051428;28;20053;-74
2022/04/07 09:15:49;;;;;;;2.78;1.00;;;18.70;99.90;;;;;;5052205;28;20125;-74
2022/04/07 09:18:24;;;;;;;2.72;1.08;;;19.20;99.90;;;;;;5052543;28;20052;-74
2022/04/07 09:20:50;;;;;;;3.28;1.00;;;19.80;99.90;;;;;;5034984;28;20039;-74
2022/04/07 09:23:17;;;;;;;1.23;0.57;;;19.40;99.90;;;;;;5053133;28;20139;-67
2022/04/07 09:25:49;;;;;;;2.25;1.10;;;19.00;99.90;;;;;;5053129;28;20052;-73
2022/04/07 09:28:28;;;;;;;1.55;0.73;;;18.60;99.90;;;;;;5051741;28;20067;-69
2022/04/07 09:30:56;;;;;;;1.40;0.70;;;18.00;99.90;;;;;;5052611;28;20025;-71
2022/04/07 09:33:22;;;;;;;1.38;0.47;;;17.90;99.90;;;;;;5053013;28;20108;-72
2022/04/07 09:36:21;;;;;;;1.33;0.38;;;18.20;99.90;;;;;;5052481;28;20018;-72
2022/04/07 09:38:54;;;;;;;2.00;0.47;;;18.30;99.90;;;;;;5030085;28;20387;-73
2022/04/07 09:41:22;;;;;;;0.90;0.20;;;18.20;99.90;;;;;;5053368;28;20052;-76
2022/04/07 09:43:54;;;;;;;0.40;0.40;;;18.00;99.90;;;;;;5051833;28;20033;-73
2022/04/07 09:46:21;;;;;;;0.25;0.20;;;18.20;99.90;;;;;;5053253;28;20056;-72
2022/04/07 09:49:03;;;;;;;0.45;0.20;;;18.50;99.90;;;;;;5052544;28;20087;-72
2022/04/07 09:51:29;;;;;;;0.20;0.20;;;18.70;99.90;;;;;;5053176;28;20040;-74
2022/04/07 09:53:56;;;;;;;0.17;0.17;;;18.70;99.90;;;;;;5051804;28;20057;-74
2022/04/07 09:56:27;;;;;;;0.25;0.20;;;18.70;99.90;;;;;;5052633;28;20071;-72
2022/04/07 09:58:54;;;;;;;0.70;0.20;;;18.30;99.90;;;;;;5052252;28;20029;-72
2022/04/07 10:01:20;;;;;;;1.20;0.95;;;18.60;99.90;;;;;;5051903;28;20146;-75
2022/04/07 10:03:49;;;;;;;1.60;0.90;;;18.90;99.90;;;;;;5053052;28;20033;-75
2022/04/07 10:06:16;;;;;;;1.02;0.63;;;19.60;99.90;;;;;;5051622;28;20108;-73
2022/04/07 10:08:42;;;;;;;1.75;0.40;;;19.80;99.90;;;;;;5052186;28;20040;-75
2022/04/07 10:11:08;;;;;;;1.65;0.40;;;19.60;99.90;;;;;;5052040;28;20032;-75
2022/04/07 10:13:37;;;;;;;0.25;0.22;;;19.00;99.90;;;;;;5052093;28;20392;-76
2022/04/07 10:16:03;;;;;;;1.33;0.45;;;18.80;99.90;;;;;;5052055;28;20029;-74
2022/04/07 10:18:33;;;;;;;1.00;0.30;;;18.40;99.90;;;;;;5052415;28;20395;-73
2022/04/07 10:21:00;;;;;;;2.30;0.57;;;17.90;99.90;;;;;;5052486;28;20029;-74
2022/04/07 10:23:42;;;;;;;1.35;1.10;;;17.90;99.90;;;;;;5051563;28;20045;-74
2022/04/07 10:26:11;;;;;;;1.13;1.02;;;17.80;99.90;;;;;;5048618;28;20021;-73
2022/04/07 10:28:36;;;;;;;1.60;1.33;;;18.00;99.90;;;;;;5054381;28;20445;-78
2022/04/07 10:31:14;;;;;;;0.50;0.50;;;20.00;99.90;;;;;;5055345;28;20075;-77
2022/04/07 10:33:46;;;;;;;0.63;0.55;;;20.80;99.90;;;;;;5056319;28;20479;-78
2022/04/07 10:36:22;;;;;;;2.10;0.57;;;21.60;99.90;;;;;;5056007;28;20044;-75
2022/04/07 10:38:54;;;;;;;0.80;0.80;;;23.20;99.90;;;;;;5038030;28;20402;-74
2022/04/07 10:41:37;;;;;;;1.08;0.60;;;26.50;99.60;;;;;;5055505;28;20017;-75
2022/04/07 10:44:17;;;;;;;1.50;0.60;;;26.50;96.60;;;;;;5056206;28;20079;-73
2022/04/07 10:46:43;;;;;;;2.17;0.70;;;27.70;93.40;;;;;;5056381;28;19909;-73
2022/04/07 10:49:11;;;;;;;1.00;0.55;;;27.50;92.00;;;;;;5055102;28;20102;-75
2022/04/07 10:51:45;;;;;;;1.55;0.82;;;27.10;91.10;;;;;;5056250;28;20079;-78
2022/04/07 10:54:12;;;;;;;;;;;26.30;91.50;;;;;;5056120;28;20013;-78
2022/04/07 10:56:41;;;;;;;1.17;0.50;;;25.20;91.10;;;;;;5055136;28;19919;-74
2022/04/07 10:59:22;;;;;;;4.03;0.97;;;24.40;92.50;;;;;;5055032;28;20139;-69
2022/04/07 11:01:57;;;;;;;3.22;0.60;;;23.80;93.00;;;;;;5054206;28;20276;-69
2022/04/07 11:04:22;;;;;;;3.88;0.95;;;23.30;93.20;;;;;;5054479;28;20025;-69
2022/04/07 11:07:10;;;;;;;1.90;0.57;;;23.60;94.00;;;;;;5054508;28;20537;-70
2022/04/07 11:09:54;;;;;;;1.40;0.65;;;23.60;94.20;;;;;;5036521;28;20043;-69
2022/04/07 11:12:43;;;;;;;1.08;0.65;;;24.50;94.70;;;;;;5054388;28;20372;-70
2022/04/07 11:15:11;;;;;;;;;;;24.50;93.10;;;;;;5054766;28;20027;-72
2022/04/07 11:17:38;;;;;;;;;;;24.10;93.80;;;;;;5055481;28;19909;-71
2022/04/07 11:20:13;;;;;;;;;;;24.10;93.00;;;;;;5037722;28;19904;-72
2022/04/07 11:22:58;;;;;;;;;;;25.80;91.90;;;;;;5037432;28;19967;-70
2022/04/07 11:25:27;;;;;;;;;;;26.20;90.40;;;;;;5056048;28;19999;-72
2022/04/07 11:28:12;;;;;;;;;;;25.50;91.40;;;;;;5055355;28;19951;-72
2022/04/07 11:30:37;;;;;;;;;;;24.30;92.20;;;;;;5055929;28;19916;-72
2022/04/07 11:33:18;;;;;;;;;;;23.90;92.50;;;;;;5055359;28;19905;-72
2022/04/07 11:35:44;;;;;;;;;;;22.50;94.30;;;;;;5055316;28;20332;-72
2022/04/07 11:38:10;;;;;;;;;;;22.00;94.90;;;;;;5055248;28;19912;-72
2022/04/07 11:40:35;;;;;;;;;;;21.60;96.10;;;;;;5055647;28;20355;-72
2022/04/07 11:43:01;;;;;;;;;;;20.50;98.00;;;;;;5055127;28;19987;-72
2022/04/07 11:45:33;;;;;;;;;;;20.20;98.30;;;;;;5055698;28;19908;-72
2022/04/07 11:47:58;;;;;;;;;;;19.60;98.90;;;;;;5054976;28;19912;-71
2022/04/07 11:50:24;;;;;;;;;;;19.10;99.90;;;;;;5055184;28;19905;-72
2022/04/07 11:52:50;;;;;;;;;;;18.90;99.90;;;;;;5054987;28;20285;-72
2022/04/07 11:55:24;;;;;;;;;;;18.80;99.90;;;;;;5054935;28;19995;-71
2022/04/07 11:57:56;;;;;;;;;;;18.50;99.90;;;;;;5055211;28;19909;-72
2022/04/07 12:00:27;;;;;;;;;;;18.60;99.90;;;;;;5055166;28;19942;-72
2022/04/07 12:03:03;;;;;;;;;;;18.90;99.90;;;;;;5055091;28;19967;-72
2022/04/07 12:05:30;;;;;;;;;;;19.10;99.90;;;;;;5054700;28;19991;-72
2022/04/07 12:07:56;;;;;;;;;;;19.90;99.90;;;;;;5054826;28;19913;-72
2022/04/07 12:10:22;;;;;;;;;;;20.50;99.90;;;;;;5054641;28;19904;-72
2022/04/07 12:12:48;;;;;;;;;;;20.50;99.90;;;;;;5054610;28;19912;-72
2022/04/07 12:15:15;;;;;;;;;;;21.10;99.90;;;;;;5054478;28;19904;-72
2022/04/07 12:17:57;;;;;;;;;;;21.00;99.60;;;;;;5054372;28;19912;-72
2022/04/07 12:20:22;;;;;;;;;;;21.40;99.80;;;;;;5053255;28;20310;-73
2022/04/07 12:23:13;;;;;;;1.60;0.60;;;21.70;98.80;;;;;;5053333;28;19929;-74
2022/04/07 12:25:40;;;;;;;2.78;1.48;;;21.30;98.30;;;;;;5053860;28;20036;-77
2022/04/07 12:28:07;;;;;;;2.10;1.23;;;21.20;98.80;;;;;;5035857;28;20079;-72
2022/04/07 12:30:46;;;;;;;;;;;21.20;99.50;;;;;;5054741;28;20049;-77
2022/04/07 12:33:12;;;;;;;;;;;21.70;98.20;;;;;;5053458;28;19909;-74
2022/04/07 12:35:47;;;;;;;;;;;21.70;97.50;;;;;;5054432;28;19970;-76
2022/04/07 12:38:12;;;;;;;;;;;21.80;97.70;;;;;;5036720;28;20386;-77
2022/04/07 12:40:38;;;;;;;;;;;21.60;97.70;;;;;;5054231;28;19909;-73
2022/04/07 12:43:04;;;;;;;;;;;21.10;97.90;;;;;;5053996;28;19970;-74
2022/04/07 12:45:30;;;;;;;;;;;20.80;98.90;;;;;;5054213;28;19912;-75
2022/04/07 12:48:04;;;;;;;;;;;20.80;98.50;;;;;;5053167;28;20298;-72
2022/04/07 12:50:29;;;;;;;;;;;20.50;98.70;;;;;;5052350;28;20393;-76
2022/04/07 12:52:55;;;;;;;;;;;20.20;99.60;;;;;;5053929;28;19905;-75
2022/04/07 12:55:31;;;;;;;;;;;19.90;99.70;;;;;;5054347;28;20380;-71
2022/04/07 12:57:56;;;;;;;;;;;19.50;99.90;;;;;;5053345;28;19935;-67